createdAt,value
2022-08-03T00:00:45.731Z,100405.59
2022-08-03T00:03:17.860Z,100411.53
2022-08-03T00:06:04.176Z,100409.69
2022-08-03T00:08:34.386Z,100413.47
2022-08-03T00:11:09.738Z,100405.16
2022-08-03T00:13:39.290Z,100412.75
2022-08-03T00:16:08.877Z,100406.81
2022-08-03T00:18:40.914Z,100408.19
2022-08-03T00:21:10.360Z,100403.94
2022-08-03T00:23:52.162Z,100414.81
2022-08-03T00:26:22.398Z,100418.38
2022-08-03T00:28:52.088Z,100412.19
2022-08-03T00:31:39.720Z,100416.88
2022-08-03T00:34:13.566Z,100416.66
2022-08-03T00:36:43.045Z,100407.44
2022-08-03T00:39:12.484Z,100403.69
2022-08-03T00:41:41.958Z,100408.00
2022-08-03T00:44:11.398Z,100411.34
2022-08-03T00:46:40.952Z,100406.00
2022-08-03T00:49:13.084Z,100413.88
2022-08-03T00:51:42.546Z,100413.94
2022-08-03T00:54:12.556Z,100409.09
2022-08-03T00:56:59.902Z,100411.84
2022-08-03T00:59:30.148Z,100408.09
2022-08-03T01:01:59.707Z,100399.75
2022-08-03T01:04:31.810Z,100401.34
2022-08-03T01:07:05.889Z,100404.91
2022-08-03T01:09:47.504Z,100410.09
2022-08-03T01:12:19.038Z,100405.25
2022-08-03T01:14:52.040Z,100399.88
2022-08-03T01:17:23.159Z,100396.94
2022-08-03T01:19:57.115Z,100392.13
2022-08-03T01:22:43.338Z,100398.09
2022-08-03T01:25:16.915Z,100395.94
2022-08-03T01:27:52.716Z,100394.91
2022-08-03T01:30:24.745Z,100389.22
2022-08-03T01:33:01.864Z,100390.34
2022-08-03T01:35:38.334Z,100390.09
2022-08-03T01:38:10.280Z,100397.97
2022-08-03T01:40:39.758Z,100393.66
2022-08-03T01:43:09.478Z,100391.28
2022-08-03T01:45:41.545Z,100386.69
2022-08-03T01:48:10.995Z,100387.75
2022-08-03T01:50:40.460Z,100391.28
2022-08-03T01:53:10.090Z,100384.31
2022-08-03T01:58:08.770Z,100390.59
2022-08-03T02:00:40.905Z,100386.84
2022-08-03T02:03:10.681Z,100385.22
2022-08-03T02:05:40.111Z,100375.22
2022-08-03T02:08:10.462Z,100391.16
2022-08-03T02:10:39.936Z,100383.09
2022-08-03T02:13:10.067Z,100384.72
2022-08-03T02:15:42.181Z,100386.91
2022-08-03T02:18:12.738Z,100390.69
2022-08-03T02:20:42.222Z,100386.66
2022-08-03T02:23:11.705Z,100384.75
2022-08-03T02:25:47.402Z,100393.41
2022-08-03T02:28:19.418Z,100387.25
2022-08-03T02:30:55.427Z,100390.25
2022-08-03T02:33:28.235Z,100384.09
2022-08-03T02:35:57.680Z,100392.44
2022-08-03T02:38:30.078Z,100386.25
2022-08-03T02:40:59.560Z,100381.16
2022-08-03T02:43:29.048Z,100383.28
2022-08-03T02:46:21.428Z,100387.06
2022-08-03T02:48:52.163Z,100380.59
2022-08-03T02:51:21.911Z,100384.13
2022-08-03T02:53:51.534Z,100383.09
2022-08-03T02:56:20.981Z,100382.06
2022-08-03T02:58:50.429Z,100384.19
2022-08-03T03:01:22.846Z,100392.28
2022-08-03T03:03:53.502Z,100385.28
2022-08-03T03:06:23.014Z,100374.75
2022-08-03T03:08:59.455Z,100382.84
2022-08-03T03:11:29.241Z,100380.44
2022-08-03T03:13:58.730Z,100377.47
2022-08-03T03:16:31.133Z,100378.28
2022-08-03T03:19:00.579Z,100382.84
2022-08-03T03:21:30.027Z,100386.63
2022-08-03T03:23:59.467Z,100379.66
2022-08-03T03:26:28.921Z,100380.19
2022-08-03T03:28:58.680Z,100388.03
2022-08-03T03:31:30.723Z,100386.41
2022-08-03T03:34:00.652Z,100391.00
2022-08-03T03:36:30.292Z,100389.13
2022-08-03T03:38:59.998Z,100390.75
2022-08-03T03:41:45.542Z,100388.31
2022-08-03T03:44:15.118Z,100382.41
2022-08-03T03:46:47.142Z,100385.91
2022-08-03T03:49:18.777Z,100387.28
2022-08-03T03:51:48.263Z,100392.41
2022-08-03T03:54:17.697Z,100382.16
2022-08-03T03:56:47.174Z,100395.88
2022-08-03T03:59:16.615Z,100389.16
2022-08-03T04:01:48.683Z,100391.84
2022-08-03T04:04:41.294Z,100383.25
2022-08-03T04:07:23.243Z,100385.66
2022-08-03T04:10:14.088Z,100381.63
2022-08-03T04:12:49.966Z,100381.34
2022-08-03T04:15:20.551Z,100389.44
2022-08-03T04:17:52.939Z,100388.09
2022-08-03T04:20:22.927Z,100381.06
2022-08-03T04:22:52.588Z,100376.78
2022-08-03T04:25:22.013Z,100374.09
2022-08-03T04:28:07.627Z,100381.91
2022-08-03T04:30:47.543Z,100384.59
2022-08-03T04:33:19.819Z,100377.59
2022-08-03T04:35:54.749Z,100390.25
2022-08-03T04:38:32.640Z,100389.97
2022-08-03T04:41:02.221Z,100391.84
2022-08-03T04:43:31.699Z,100399.38
2022-08-03T04:46:01.129Z,100403.13
2022-08-03T04:48:33.159Z,100402.59
2022-08-03T04:51:04.505Z,100410.97
2022-08-03T04:53:33.999Z,100415.81
2022-08-03T04:56:07.148Z,100408.81
2022-08-03T04:58:36.652Z,100405.28
2022-08-03T05:01:06.167Z,100408.50
2022-08-03T05:03:38.205Z,100413.06
2022-08-03T05:06:11.043Z,100414.41
2022-08-03T05:08:46.395Z,100413.31
2022-08-03T05:11:17.083Z,100423.84
2022-08-03T05:13:46.635Z,100422.00
2022-08-03T05:16:16.502Z,100425.75
2022-08-03T05:18:48.732Z,100427.13
2022-08-03T05:21:18.202Z,100427.59
2022-08-03T05:23:47.722Z,100423.00
2022-08-03T05:26:17.193Z,100428.94
2022-08-03T05:28:50.611Z,100435.13
2022-08-03T05:31:21.167Z,100430.19
2022-08-03T05:33:53.203Z,100429.59
2022-08-03T05:36:22.805Z,100431.66
2022-08-03T05:38:52.297Z,100433.28
2022-08-03T05:41:36.427Z,100435.66
2022-08-03T05:44:07.299Z,100436.31
2022-08-03T05:46:36.753Z,100432.50
2022-08-03T05:49:08.857Z,100429.13
2022-08-03T05:51:38.382Z,100431.16
2022-08-03T05:54:07.878Z,100431.38
2022-08-03T05:56:37.317Z,100430.94
2022-08-03T05:59:28.739Z,100433.16
2022-08-03T06:01:56.282Z,100430.28
2022-08-03T06:04:28.380Z,100433.13
2022-08-03T06:06:58.548Z,100422.81
2022-08-03T06:09:56.527Z,100432.47
2022-08-03T06:12:17.843Z,100430.13
2022-08-03T06:14:47.439Z,100423.63
2022-08-03T06:17:16.935Z,100439.06
2022-08-03T06:19:48.962Z,100428.16
2022-08-03T06:22:18.604Z,100430.16
2022-08-03T06:24:53.499Z,100428.13
2022-08-03T06:27:36.416Z,100427.63
2022-08-03T06:30:07.776Z,100424.69
2022-08-03T06:32:37.280Z,100427.03
2022-08-03T06:35:10.005Z,100433.50
2022-08-03T06:37:48.826Z,100420.22
2022-08-03T06:40:21.905Z,100439.13
2022-08-03T06:42:54.111Z,100430.63
2022-08-03T06:45:23.821Z,100433.56
2022-08-03T06:48:02.956Z,100432.38
2022-08-03T06:50:35.074Z,100429.28
2022-08-03T06:53:04.656Z,100431.69
2022-08-03T06:55:34.175Z,100433.91
2022-08-03T06:58:11.736Z,100428.38
2022-08-03T07:00:41.166Z,100440.63
2022-08-03T07:03:10.615Z,100440.34
2022-08-03T07:05:42.778Z,100426.03
2022-08-03T07:08:12.260Z,100431.94
2022-08-03T07:10:41.704Z,100431.41
2022-08-03T07:13:11.143Z,100432.63
2022-08-03T07:15:55.828Z,100443.09
2022-08-03T07:18:29.947Z,100437.47
2022-08-03T07:21:02.254Z,100445.47
2022-08-03T07:23:31.724Z,100449.47
2022-08-03T07:26:01.206Z,100449.84
2022-08-03T07:28:30.731Z,100448.50
2022-08-03T07:31:00.195Z,100458.75
2022-08-03T07:33:29.691Z,100458.25
2022-08-03T07:36:01.861Z,100449.19
2022-08-03T07:38:31.557Z,100447.19
2022-08-03T07:41:00.986Z,100452.13
2022-08-03T07:43:30.507Z,100444.81
2022-08-03T07:45:59.989Z,100452.66
2022-08-03T07:48:29.454Z,100446.59
2022-08-03T07:50:58.904Z,100450.19
2022-08-03T07:53:30.960Z,100449.88
2022-08-03T07:56:00.443Z,100452.59
2022-08-03T07:58:30.803Z,100447.47
2022-08-03T08:01:00.302Z,100447.63
2022-08-03T08:03:29.806Z,100443.31
2022-08-03T08:06:19.368Z,100445.50
2022-08-03T08:08:51.530Z,100445.25
2022-08-03T08:11:22.294Z,100443.06
2022-08-03T08:13:51.522Z,100441.47
2022-08-03T08:16:20.974Z,100442.81
2022-08-03T08:18:50.408Z,100444.78
2022-08-03T08:21:19.871Z,100438.09
2022-08-03T08:23:56.946Z,100437.22
2022-08-03T08:26:26.695Z,100433.16
2022-08-03T08:28:56.180Z,100437.06
2022-08-03T08:31:25.642Z,100436.88
2022-08-03T08:34:04.925Z,100428.88
2022-08-03T08:36:35.360Z,100429.44
2022-08-03T08:39:07.383Z,100433.56
2022-08-03T08:41:36.820Z,100429.31
2022-08-03T08:44:08.229Z,100425.28
2022-08-03T08:46:37.683Z,100423.63
2022-08-03T08:49:07.131Z,100420.56
2022-08-03T08:51:59.095Z,100422.69
2022-08-03T08:54:29.617Z,100428.31
2022-08-03T08:56:59.392Z,100423.97
2022-08-03T08:59:47.745Z,100434.13
2022-08-03T09:02:18.384Z,100425.44
2022-08-03T09:04:48.890Z,100430.72
2022-08-03T09:07:29.145Z,100422.97
2022-08-03T09:10:11.058Z,100424.78
2022-08-03T09:12:43.174Z,100421.25
2022-08-03T09:15:23.957Z,100420.66
2022-08-03T09:17:53.624Z,100428.50
2022-08-03T09:20:23.555Z,100425.97
2022-08-03T09:23:01.287Z,100424.97
2022-08-03T09:25:34.579Z,100422.78
2022-08-03T09:28:11.122Z,100420.25
2022-08-03T09:30:41.224Z,100421.69
2022-08-03T09:33:11.633Z,100429.19
2022-08-03T09:35:53.539Z,100435.56
2022-08-03T09:38:26.258Z,100437.53
2022-08-03T09:41:00.914Z,100435.97
2022-08-03T09:43:30.683Z,100428.03
2022-08-03T09:46:05.555Z,100426.41
2022-08-03T09:48:36.840Z,100422.09
2022-08-03T09:51:13.694Z,100432.91
2022-08-03T09:54:00.512Z,100422.81
2022-08-03T09:56:43.750Z,100420.38
2022-08-03T09:59:13.588Z,100424.91
2022-08-03T10:01:44.342Z,100417.78
2022-08-03T10:04:17.632Z,100417.25
2022-08-03T10:06:47.497Z,100413.69
2022-08-03T10:09:17.843Z,100407.84
2022-08-03T10:11:50.237Z,100418.69
2022-08-03T10:14:22.622Z,100401.91
2022-08-03T10:16:52.365Z,100398.16
2022-08-03T10:19:21.830Z,100401.22
2022-08-03T10:21:56.195Z,100403.94
2022-08-03T10:24:27.924Z,100396.47
2022-08-03T10:27:06.029Z,100381.59
2022-08-03T10:29:39.789Z,100383.38
2022-08-03T10:32:14.631Z,100390.25
2022-08-03T10:34:45.006Z,100392.81
2022-08-03T10:37:14.859Z,100384.44
2022-08-03T10:39:53.549Z,100377.31
2022-08-03T10:42:27.261Z,100367.44
2022-08-03T10:45:07.423Z,100359.50
2022-08-03T10:47:37.471Z,100346.22
2022-08-03T10:50:07.860Z,100340.22
2022-08-03T10:52:41.280Z,100342.13
2022-08-03T10:55:44.788Z,100340.13
2022-08-03T10:58:30.425Z,100326.78
2022-08-03T11:01:00.530Z,100317.81
2022-08-03T11:03:30.030Z,100312.69
2022-08-03T11:06:19.034Z,100317.25
2022-08-03T11:08:48.834Z,100311.66
2022-08-03T11:11:31.323Z,100312.22
2022-08-03T11:14:05.483Z,100303.09
2022-08-03T11:16:37.091Z,100301.81
2022-08-03T11:19:07.467Z,100305.06
2022-08-03T11:21:55.696Z,100307.66
2022-08-03T11:24:57.589Z,100291.91
2022-08-03T11:27:27.471Z,100293.06
2022-08-03T11:30:01.110Z,100299.19
2022-08-03T11:32:56.264Z,100306.53
2022-08-03T11:35:26.411Z,100293.41
2022-08-03T11:38:08.656Z,100294.09
2022-08-03T11:40:39.524Z,100294.22
2022-08-03T11:43:09.867Z,100294.06
2022-08-03T11:45:41.727Z,100293.41
2022-08-03T11:48:17.383Z,100294.53
2022-08-03T11:50:47.908Z,100293.09
2022-08-03T11:53:18.741Z,100289.31
2022-08-03T11:55:49.025Z,100281.97
2022-08-03T11:59:19.544Z,100275.94
2022-08-03T12:01:21.211Z,100275.94
2022-08-03T12:03:52.605Z,100275.31
2022-08-03T12:06:23.890Z,100277.31
2022-08-03T12:08:53.315Z,100275.75
2022-08-03T12:11:22.761Z,100264.00
2022-08-03T12:14:44.868Z,100271.06
2022-08-03T12:16:44.749Z,100273.63
2022-08-03T12:19:14.195Z,100268.66
2022-08-03T12:21:56.560Z,100270.75
2022-08-03T12:24:29.529Z,100267.56
2022-08-03T12:26:59.991Z,100269.91
2022-08-03T12:29:29.894Z,100262.34
2022-08-03T12:32:02.284Z,100259.28
2022-08-03T12:34:49.415Z,100253.47
2022-08-03T12:37:23.384Z,100247.00
2022-08-03T12:40:01.329Z,100249.47
2022-08-03T12:42:35.686Z,100244.28
2022-08-03T12:45:23.300Z,100243.69
2022-08-03T12:47:56.415Z,100240.63
2022-08-03T12:50:32.289Z,100236.31
2022-08-03T12:53:01.986Z,100234.13
2022-08-03T12:55:56.734Z,100232.09
2022-08-03T12:58:33.658Z,100232.25
2022-08-03T13:01:05.121Z,100232.59
2022-08-03T13:03:49.915Z,100233.13
2022-08-03T13:06:23.358Z,100239.66
2022-08-03T13:08:52.930Z,100229.78
2022-08-03T13:11:50.532Z,100224.53
2022-08-03T13:14:19.431Z,100225.88
2022-08-03T13:16:49.929Z,100215.75
2022-08-03T13:19:21.998Z,100219.03
2022-08-03T13:21:53.476Z,100219.69
2022-08-03T13:24:33.273Z,100210.81
2022-08-03T13:28:00.041Z,100206.09
2022-08-03T13:29:52.997Z,100206.72
2022-08-03T13:32:22.774Z,100211.09
2022-08-03T13:34:54.823Z,100211.56
2022-08-03T13:37:24.612Z,100196.56
2022-08-03T13:39:59.501Z,100203.41
2022-08-03T13:42:31.376Z,100199.44
2022-08-03T13:45:00.895Z,100185.13
2022-08-03T13:47:30.489Z,100181.38
2022-08-03T13:50:03.254Z,100179.28
2022-08-03T13:52:34.129Z,100184.22
2022-08-03T13:55:03.743Z,100180.41
2022-08-03T13:58:02.918Z,100174.00
2022-08-03T14:00:27.513Z,100175.63
2022-08-03T14:03:07.963Z,100178.53
2022-08-03T14:05:45.083Z,100170.25
2022-08-03T14:08:14.703Z,100163.00
2022-08-03T14:10:45.161Z,100162.25
2022-08-03T14:13:16.863Z,100161.88
2022-08-03T14:15:50.195Z,100155.66
2022-08-03T14:18:27.839Z,100156.44
2022-08-03T14:21:05.915Z,100155.78
2022-08-03T14:23:36.173Z,100150.94
2022-08-03T14:26:05.670Z,100154.63
2022-08-03T14:28:35.171Z,100155.94
2022-08-03T14:31:08.353Z,100149.81
2022-08-03T14:33:45.117Z,100149.34
2022-08-03T14:36:17.147Z,100135.81
2022-08-03T14:38:46.717Z,100146.13
2022-08-03T14:41:20.258Z,100140.63
2022-08-03T14:44:02.174Z,100139.13
2022-08-03T14:46:32.544Z,100132.06
2022-08-03T14:50:34.713Z,100128.91
2022-08-03T14:51:54.204Z,100125.75
2022-08-03T14:54:24.367Z,100120.41
2022-08-03T14:56:53.862Z,100119.34
2022-08-03T14:59:23.320Z,100122.19
2022-08-03T15:02:05.168Z,100121.44
2022-08-03T15:04:37.175Z,100114.81
2022-08-03T15:07:09.271Z,100115.94
2022-08-03T15:09:38.754Z,100118.22
2022-08-03T15:12:08.755Z,100113.72
2022-08-03T15:14:38.195Z,100104.53
2022-08-03T15:17:08.225Z,100098.06
2022-08-03T15:20:02.117Z,100102.25
2022-08-03T15:22:34.936Z,100087.00
2022-08-03T15:26:32.120Z,100094.19
2022-08-03T15:28:03.593Z,100088.44
2022-08-03T15:30:37.041Z,100083.75
2022-08-03T15:33:06.643Z,100080.81
2022-08-03T15:35:38.918Z,100077.31
2022-08-03T15:38:10.977Z,100078.31
2022-08-03T15:40:40.420Z,100078.97
2022-08-03T15:43:09.917Z,100077.75
2022-08-03T15:45:42.111Z,100074.31
2022-08-03T15:48:11.690Z,100073.63
2022-08-03T15:50:41.270Z,100070.97
2022-08-03T15:53:15.787Z,100063.00
2022-08-03T15:55:45.293Z,100074.03
2022-08-03T15:59:10.751Z,100072.84
2022-08-03T16:01:04.867Z,100063.94
2022-08-03T16:03:34.698Z,100059.66
2022-08-03T16:06:04.824Z,100058.69
2022-08-03T16:08:36.809Z,100056.53
2022-08-03T16:11:06.241Z,100051.44
2022-08-03T16:14:12.448Z,100054.75
2022-08-03T16:16:25.196Z,100050.97
2022-08-03T16:18:54.667Z,100055.72
2022-08-03T16:21:24.131Z,100057.78
2022-08-03T16:24:01.956Z,100054.66
2022-08-03T16:26:32.369Z,100053.34
2022-08-03T16:29:04.541Z,100046.50
2022-08-03T16:31:52.515Z,100054.22
2022-08-03T16:34:21.970Z,100051.31
2022-08-03T16:36:51.457Z,100043.38
2022-08-03T16:39:23.613Z,100048.97
2022-08-03T16:41:53.813Z,100048.91
2022-08-03T16:44:30.755Z,100051.69
2022-08-03T16:47:00.223Z,100039.88
2022-08-03T16:49:53.989Z,100042.34
2022-08-03T16:52:19.229Z,100035.97
2022-08-03T16:54:53.224Z,100045.22
2022-08-03T16:57:56.732Z,100037.97
2022-08-03T17:00:32.958Z,100036.13
2022-08-03T17:03:16.377Z,100034.72
2022-08-03T17:05:50.964Z,100040.06
2022-08-03T17:08:26.603Z,100037.41
2022-08-03T17:10:59.428Z,100041.69
2022-08-03T17:13:39.101Z,100040.00
2022-08-03T17:16:08.941Z,100039.53
2022-08-03T17:18:42.244Z,100041.41
2022-08-03T17:21:17.054Z,100038.78
2022-08-03T17:23:48.294Z,100034.50
2022-08-03T17:26:21.906Z,100037.84
2022-08-03T17:28:57.348Z,100032.44
2022-08-03T17:31:31.356Z,100031.41
2022-08-03T17:34:04.329Z,100030.47
2022-08-03T17:37:02.034Z,100038.13
2022-08-03T17:39:48.517Z,100032.63
2022-08-03T17:42:29.490Z,100032.28
2022-08-03T17:45:02.403Z,100033.56
2022-08-03T17:47:41.935Z,100035.41
2022-08-03T17:50:24.341Z,100037.56
2022-08-03T17:53:00.831Z,100039.69
2022-08-03T17:55:55.831Z,100031.53
2022-08-03T17:58:26.482Z,100029.09
2022-08-03T18:01:59.545Z,100046.22
2022-08-03T18:03:59.925Z,100034.22
2022-08-03T18:06:31.137Z,100037.78
2022-08-03T18:09:05.139Z,100040.19
2022-08-03T18:11:51.743Z,100031.84
2022-08-03T18:14:28.892Z,100038.28
2022-08-03T18:17:01.484Z,100037.97
2022-08-03T18:20:02.837Z,100033.59
2022-08-03T18:22:25.276Z,100037.72
2022-08-03T18:24:55.853Z,100034.13
2022-08-03T18:27:45.436Z,100039.81
2022-08-03T18:30:18.105Z,100041.47
2022-08-03T18:33:01.107Z,100045.25
2022-08-03T18:35:53.542Z,100046.59
2022-08-03T18:38:23.795Z,100046.00
2022-08-03T18:40:53.589Z,100048.94
2022-08-03T18:43:46.260Z,100049.88
2022-08-03T18:46:25.810Z,100050.78
2022-08-03T18:48:57.292Z,100047.84
2022-08-03T18:51:33.771Z,100051.50
2022-08-03T18:54:06.477Z,100052.03
2022-08-03T18:56:42.549Z,100059.31
2022-08-03T18:59:13.381Z,100052.41
2022-08-03T19:01:58.235Z,100052.22
2022-08-03T19:04:34.071Z,100063.38
2022-08-03T19:07:07.945Z,100057.66
2022-08-03T19:09:40.701Z,100066.94
2022-08-03T19:12:27.284Z,100064.91
2022-08-03T19:15:03.836Z,100073.31
2022-08-03T19:17:38.717Z,100076.63
2022-08-03T19:20:10.378Z,100075.41
2022-08-03T19:22:40.311Z,100075.22
2022-08-03T19:25:15.397Z,100085.28
2022-08-03T19:27:44.844Z,100086.25
2022-08-03T19:30:34.889Z,100090.81
2022-08-03T19:33:07.277Z,100085.63
2022-08-03T19:35:51.429Z,100079.50
2022-08-03T19:38:28.780Z,100079.06
2022-08-03T19:41:00.152Z,100080.81
2022-08-03T19:43:32.947Z,100083.03
2022-08-03T19:46:06.301Z,100087.59
2022-08-03T19:48:39.295Z,100086.00
2022-08-03T19:51:12.709Z,100084.38
2022-08-03T19:53:44.900Z,100081.22
2022-08-03T19:56:14.710Z,100082.59
2022-08-03T19:58:45.367Z,100083.66
2022-08-03T20:01:22.815Z,100081.59
2022-08-03T20:03:55.222Z,100082.56
2022-08-03T20:06:25.702Z,100085.38
2022-08-03T20:08:55.201Z,100083.78
2022-08-03T20:11:28.818Z,100077.16
2022-08-03T20:13:58.448Z,100078.63
2022-08-03T20:16:27.909Z,100081.38
2022-08-03T20:18:59.970Z,100076.72
2022-08-03T20:21:30.011Z,100078.63
2022-08-03T20:24:23.266Z,100076.28
2022-08-03T20:26:52.501Z,100084.72
2022-08-03T20:29:23.831Z,100073.19
2022-08-03T20:32:12.484Z,100082.91
2022-08-03T20:34:44.635Z,100080.88
2022-08-03T20:37:18.895Z,100083.34
2022-08-03T20:39:49.565Z,100074.22
2022-08-03T20:42:21.683Z,100084.25
2022-08-03T20:45:05.128Z,100073.66
2022-08-03T20:47:41.646Z,100077.66
2022-08-03T20:50:23.136Z,100077.66
2022-08-03T20:52:52.613Z,100083.94
2022-08-03T20:55:47.852Z,100076.19
2022-08-03T20:58:11.850Z,100083.94
2022-08-03T21:00:41.703Z,100078.22
2022-08-03T21:03:12.786Z,100083.66
2022-08-03T21:05:51.122Z,100079.13
2022-08-03T21:08:21.225Z,100083.34
2022-08-03T21:10:51.785Z,100077.13
2022-08-03T21:13:24.777Z,100074.84
2022-08-03T21:16:02.934Z,100081.22
2022-08-03T21:18:46.262Z,100070.84
2022-08-03T21:21:19.534Z,100071.25
2022-08-03T21:23:52.682Z,100074.19
2022-08-03T21:26:22.920Z,100073.25
2022-08-03T21:28:53.187Z,100070.28
2022-08-03T21:31:25.296Z,100070.78
2022-08-03T21:33:56.663Z,100072.47
2022-08-03T21:36:28.757Z,100073.88
2022-08-03T21:38:58.737Z,100078.09
2022-08-03T21:41:28.908Z,100075.88
2022-08-03T21:43:58.428Z,100075.09
2022-08-03T21:46:28.057Z,100071.44
2022-08-03T21:50:04.980Z,100066.97
2022-08-03T21:51:51.070Z,100073.13
2022-08-03T21:54:21.069Z,100076.84
2022-08-03T21:56:51.205Z,100061.03
2022-08-03T21:59:21.495Z,100064.41
2022-08-03T22:01:55.142Z,100063.47
2022-08-03T22:04:42.679Z,100062.88
2022-08-03T22:07:20.669Z,100067.84
2022-08-03T22:09:52.180Z,100066.91
2022-08-03T22:12:24.409Z,100069.66
2022-08-03T22:15:01.099Z,100070.75
2022-08-03T22:17:55.487Z,100081.19
2022-08-03T22:20:21.585Z,100080.78
2022-08-03T22:22:57.029Z,100078.25
2022-08-03T22:25:30.585Z,100079.16
2022-08-03T22:28:00.824Z,100080.78
2022-08-03T22:30:31.682Z,100085.44
2022-08-03T22:33:01.401Z,100085.47
2022-08-03T22:35:30.857Z,100086.31
2022-08-03T22:38:02.896Z,100090.34
2022-08-03T22:40:32.378Z,100084.75
2022-08-03T22:43:03.423Z,100089.72
2022-08-03T22:46:07.428Z,100088.59
2022-08-03T22:48:23.095Z,100088.00
2022-08-03T22:50:52.535Z,100083.19
2022-08-03T22:53:24.744Z,100083.38
2022-08-03T22:55:54.422Z,100092.81
2022-08-03T22:58:23.891Z,100094.09
2022-08-03T23:00:55.933Z,100097.50
2022-08-03T23:03:58.889Z,100092.50
2022-08-03T23:06:16.741Z,100092.81
2022-08-03T23:08:49.071Z,100097.97
2022-08-03T23:11:18.601Z,100094.94
2022-08-03T23:13:48.537Z,100091.59
2022-08-03T23:16:28.934Z,100089.50
2022-08-03T23:18:59.208Z,100098.63
2022-08-03T23:22:00.119Z,100097.22
2022-08-03T23:24:29.490Z,100092.25
2022-08-03T23:26:59.685Z,100091.44
2022-08-03T23:29:29.253Z,100095.25
2022-08-03T23:31:59.414Z,100097.97
2022-08-03T23:34:41.447Z,100101.16
2022-08-03T23:37:10.895Z,100102.13
2022-08-03T23:39:42.934Z,100093.97
2022-08-03T23:42:12.369Z,100102.94
2022-08-03T23:44:41.820Z,100096.03
2022-08-03T23:47:11.256Z,100096.69
2022-08-03T23:49:40.716Z,100094.13
2022-08-03T23:52:12.085Z,100094.75
2022-08-03T23:55:00.356Z,100090.25
2022-08-03T23:57:32.352Z,100087.38
